Time;durP1;ratioP1;P1;durP2;ratioP2;P2;SDS_P1;SDS_P2;PMS_P1;PMS_P2;Temp;Humidity;BMP_temperature;BMP_pressure;BME280_temperature;BME280_humidity;BME280_pressure;Samples;Min_cycle;Max_cycle;Signal;HPM_P1;HPM_P2
2021/09/04 13:43:51;;;;;;;6.18;4.68;;;;;;;22.16;56.43;93064.41;2077824;28;20045;-94
2021/09/04 13:44:56;;;;;;;7.00;4.75;;;;;;;22.01;57.23;93064.59;2058084;28;20030;-94
2021/09/04 13:45:57;;;;;;;5.53;5.03;;;;;;;21.89;60.34;93065.78;2051062;28;20054;-93
2021/09/04 13:46:58;;;;;;;5.95;4.95;;;;;;;21.74;56.17;93073.41;2058100;28;20094;-90
2021/09/04 13:47:59;;;;;;;6.10;5.15;;;;;;;21.66;60.54;93069.66;2057890;28;20039;-93
2021/09/04 13:49:00;;;;;;;8.30;4.90;;;;;;;21.53;59.08;93073.56;2042071;29;20024;-95
2021/09/04 13:50:01;;;;;;;6.65;4.25;;;;;;;21.36;58.95;93065.31;2050399;28;20023;-93
2021/09/04 13:51:02;;;;;;;5.80;4.57;;;;;;;21.43;57.25;93068.81;2058218;28;20058;-90
2021/09/04 13:52:03;;;;;;;5.35;4.25;;;;;;;21.46;55.51;93078.72;2058380;28;20413;-93
2021/09/04 13:53:04;;;;;;;5.60;5.10;;;;;;;21.29;56.67;93075.84;2058401;28;20034;-94
2021/09/04 13:54:05;;;;;;;4.75;4.35;;;;;;;21.23;58.26;93075.09;2066291;28;20500;-92
2021/09/04 13:55:06;;;;;;;5.50;4.20;;;;;;;21.12;56.06;93076.53;2066520;28;20076;-92
2021/09/04 13:56:07;;;;;;;5.90;4.18;;;;;;;21.08;57.24;93073.28;2057978;28;20033;-93
2021/09/04 13:57:08;;;;;;;9.40;4.97;;;;;;;21.00;57.60;93074.94;2050508;28;20023;-94
2021/09/04 13:58:09;;;;;;;4.90;4.30;;;;;;;21.03;56.59;93076.72;2057910;28;20031;-91
2021/09/04 13:59:10;;;;;;;5.82;4.65;;;;;;;20.98;56.24;93076.66;2066215;28;20109;-91
2021/09/04 14:00:13;;;;;;;5.03;4.35;;;;;;;20.96;57.19;93079.88;2065993;28;20018;-93
2021/09/04 14:01:14;;;;;;;6.45;4.60;;;;;;;20.88;58.20;93074.13;2066331;28;20092;-93
2021/09/04 14:02:15;;;;;;;5.97;4.70;;;;;;;20.91;57.76;93068.97;2057996;28;20026;-95
2021/09/04 14:03:16;;;;;;;6.75;4.85;;;;;;;20.91;58.36;93066.25;2057912;28;20491;-92
2021/09/04 14:04:17;;;;;;;5.20;4.40;;;;;;;20.89;62.83;93066.72;2066055;28;20022;-94
2021/09/04 14:05:18;;;;;;;5.10;4.40;;;;;;;20.95;58.78;93066.75;2066569;28;20081;-93
2021/09/04 14:06:19;;;;;;;5.75;4.28;;;;;;;20.98;57.52;93061.09;2066185;28;20391;-94
2021/09/04 14:07:20;;;;;;;5.15;4.43;;;;;;;20.97;60.36;93059.59;2066198;28;20015;-93
2021/09/04 14:08:21;;;;;;;5.05;4.55;;;;;;;20.90;61.77;93064.75;2058069;28;20041;-96
2021/09/04 14:09:22;;;;;;;5.07;4.60;;;;;;;20.84;64.32;93064.69;2050144;28;20023;-93
2021/09/04 14:10:23;;;;;;;7.05;4.78;;;;;;;20.79;64.90;93073.56;2049939;28;20027;-94
2021/09/04 14:11:24;;;;;;;6.90;4.65;;;;;;;20.73;64.56;93061.91;2057660;28;20165;-93
2021/09/04 14:12:26;;;;;;;5.45;4.63;;;;;;;20.68;66.64;93068.06;2057630;28;20460;-90
2021/09/04 14:13:27;;;;;;;5.03;4.53;;;;;;;20.68;65.94;93066.06;2057704;28;20027;-91
2021/09/04 14:14:28;;;;;;;5.15;4.75;;;;;;;20.67;66.77;93075.44;2057834;28;20046;-93
2021/09/04 14:15:29;;;;;;;5.63;4.30;;;;;;;20.61;69.31;93067.25;2057588;28;20082;-93
2021/09/04 14:16:30;;;;;;;11.30;6.55;;;;;;;20.55;70.00;93074.59;2057672;28;20023;-93
2021/09/04 14:17:31;;;;;;;28.73;11.20;;;;;;;20.54;69.78;93066.94;2049739;29;20070;-93
2021/09/04 14:18:32;;;;;;;16.02;7.82;;;;;;;20.66;67.74;93068.50;2057870;28;20081;-91
2021/09/04 14:19:33;;;;;;;20.85;10.00;;;;;;;20.60;68.59;93076.63;2057539;28;20026;-93
2021/09/04 14:20:34;;;;;;;13.68;6.97;;;;;;;20.64;68.15;93070.25;2049904;28;20086;-94
2021/09/04 14:21:35;;;;;;;13.88;5.95;;;;;;;20.77;67.96;93073.31;2053834;28;20023;-92
2021/09/04 14:22:36;;;;;;;13.85;7.20;;;;;;;21.07;67.11;93071.81;2049737;28;20039;-93
2021/09/04 14:23:37;;;;;;;6.65;5.15;;;;;;;21.07;66.48;93065.59;2049771;28;20531;-93
2021/09/04 14:24:38;;;;;;;7.65;5.18;;;;;;;21.03;63.84;93065.09;2065536;28;20060;-92
2021/09/04 14:25:39;;;;;;;7.00;4.55;;;;;;;21.05;64.33;93068.81;2057553;28;20019;-91
2021/09/04 14:26:40;;;;;;;5.30;4.80;;;;;;;21.05;61.14;93062.63;2057510;28;20480;-92
2021/09/04 14:27:41;;;;;;;6.40;5.80;;;;;;;21.11;65.93;93063.41;2057466;28;20129;-91
2021/09/04 14:28:41;;;;;;;6.18;5.57;;;;;;;21.13;65.30;93069.84;2049642;28;20023;-91
2021/09/04 14:29:42;;;;;;;6.10;5.50;;;;;;;21.13;63.25;93066.38;2057586;28;20019;-94
2021/09/04 14:30:43;;;;;;;6.47;5.80;;;;;;;21.18;65.29;93062.97;2057844;28;20027;-92
2021/09/04 14:31:44;;;;;;;11.77;6.25;;;;;;;21.17;67.12;93068.88;2057371;28;20030;-93
2021/09/04 14:32:45;;;;;;;7.70;5.95;;;;;;;21.30;64.93;93061.81;2057594;28;20026;-92
2021/09/04 14:33:46;;;;;;;9.57;5.82;;;;;;;21.39;65.49;93060.88;2057592;28;20022;-94
2021/09/04 14:34:47;;;;;;;6.07;5.10;;;;;;;21.47;62.20;93066.63;2057621;28;20023;-94
2021/09/04 14:35:50;;;;;;;5.50;4.72;;;;;;;21.52;62.31;93063.91;2049544;28;20519;-92
2021/09/04 14:36:51;;;;;;;5.43;4.85;;;;;;;21.46;63.01;93065.84;2056226;28;20492;-91
2021/09/04 14:37:52;;;;;;;5.15;4.65;;;;;;;21.46;64.43;93070.53;2049647;28;20051;-93
2021/09/04 14:38:53;;;;;;;4.70;4.30;;;;;;;21.36;62.22;93065.31;2049870;28;20046;-94
2021/09/04 14:39:54;;;;;;;6.97;4.78;;;;;;;21.46;62.43;93068.56;2057875;28;20061;-94
2021/09/04 14:40:55;;;;;;;5.75;4.80;;;;;;;21.54;61.24;93066.13;2057714;28;20500;-93
2021/09/04 14:41:56;;;;;;;5.80;4.55;;;;;;;21.66;62.27;93064.22;2049803;28;20031;-93
2021/09/04 14:42:58;;;;;;;5.28;4.75;;;;;;;21.75;60.67;93058.56;2049615;28;20503;-95
2021/09/04 14:43:59;;;;;;;6.18;4.90;;;;;;;21.85;59.14;93057.13;2049510;28;20047;-93
2021/09/04 14:45:00;;;;;;;8.23;4.70;;;;;;;21.71;59.45;93055.34;2049521;28;20035;-92
2021/09/04 14:46:01;;;;;;;4.68;4.28;;;;;;;21.80;62.70;93061.31;2049474;29;20473;-93
2021/09/04 14:47:02;;;;;;;5.63;4.63;;;;;;;21.79;60.01;93056.38;2049773;28;20019;-93
2021/09/04 14:48:03;;;;;;;5.72;4.55;;;;;;;21.93;59.51;93057.41;2049543;28;20031;-93
2021/09/04 14:49:04;;;;;;;5.47;4.40;;;;;;;21.87;61.02;93055.41;2049666;28;20027;-94
2021/09/04 14:50:06;;;;;;;6.50;4.53;;;;;;;21.78;59.58;93055.63;2057765;28;20464;-94
2021/09/04 14:51:07;;;;;;;7.63;4.50;;;;;;;21.83;60.75;93051.44;2057406;28;20029;-94
2021/09/04 14:52:08;;;;;;;6.15;4.57;;;;;;;21.89;59.15;93052.19;2049687;28;20528;-94
2021/09/04 14:53:09;;;;;;;6.22;4.53;;;;;;;22.02;60.35;93049.00;2049818;29;20026;-93
2021/09/04 14:54:10;;;;;;;4.85;4.32;;;;;;;22.10;58.19;93055.47;2049972;28;20023;-93
2021/09/04 14:55:12;;;;;;;5.93;4.43;;;;;;;22.04;58.99;93058.19;2051612;28;20022;-94
2021/09/04 14:56:13;;;;;;;6.40;4.55;;;;;;;22.12;57.69;93055.72;2057821;28;20041;-91
2021/09/04 14:57:14;;;;;;;4.95;4.45;;;;;;;22.13;58.34;93053.78;2058721;28;20484;-93
2021/09/04 14:58:15;;;;;;;6.22;4.60;;;;;;;22.10;59.72;93052.75;2050277;28;20051;-92
2021/09/04 14:59:16;;;;;;;5.65;4.68;;;;;;;22.10;60.89;93058.19;2058100;28;20526;-91
2021/09/04 15:00:18;;;;;;;6.00;5.00;;;;;;;22.09;60.58;93059.44;2057841;28;20047;-92
2021/09/04 15:01:19;;;;;;;6.05;4.75;;;;;;;22.08;58.82;93063.38;2051188;29;20031;-90
2021/09/04 15:02:20;;;;;;;5.47;4.60;;;;;;;22.19;61.87;93054.53;2050236;28;20031;-92
2021/09/04 15:03:21;;;;;;;5.20;4.70;;;;;;;22.29;59.24;93059.22;2058182;28;20412;-92
2021/09/04 15:04:25;;;;;;;5.20;4.32;;;;;;;22.24;57.75;93059.22;2058377;28;20054;-93
2021/09/04 15:05:26;;;;;;;5.10;4.45;;;;;;;22.32;61.22;93052.06;2058155;28;20030;-93
2021/09/04 15:06:27;;;;;;;6.38;4.40;;;;;;;22.39;58.77;93059.78;2050082;29;20038;-93
2021/09/04 15:07:28;;;;;;;6.05;4.95;;;;;;;22.41;57.28;93057.28;2050525;28;20050;-93
2021/09/04 15:08:29;;;;;;;6.43;4.40;;;;;;;22.51;57.89;93063.22;2057351;28;20038;-91
2021/09/04 15:09:30;;;;;;;6.70;4.80;;;;;;;22.42;58.65;93058.75;2056875;28;20078;-93
2021/09/04 15:10:31;;;;;;;9.52;4.90;;;;;;;22.42;58.67;93055.28;2056929;28;20050;-92
2021/09/04 15:11:32;;;;;;;7.22;4.60;;;;;;;22.38;59.95;93064.44;2048963;28;20030;-90
2021/09/04 15:12:32;;;;;;;5.10;4.38;;;;;;;22.29;59.99;93055.78;2056803;28;20030;-90
2021/09/04 15:13:33;;;;;;;5.55;4.78;;;;;;;22.03;60.50;93064.09;2060711;28;20034;-91
2021/09/04 15:14:34;;;;;;;6.47;4.57;;;;;;;21.92;60.73;93064.81;2049619;29;20115;-91
2021/09/04 15:15:35;;;;;;;5.25;4.75;;;;;;;22.00;60.42;93063.13;2042640;29;20300;-91
2021/09/04 15:16:36;;;;;;;4.70;4.18;;;;;;;22.01;61.31;93059.16;2042465;29;20118;-91
2021/09/04 15:17:38;;;;;;;9.10;5.05;;;;;;;22.01;60.65;93063.84;2037895;29;20030;-88
2021/09/04 15:18:39;;;;;;;4.65;4.25;;;;;;;22.07;62.25;93070.78;2058514;28;20468;-90
2021/09/04 15:19:40;;;;;;;5.47;4.43;;;;;;;22.09;58.93;93065.63;2054450;28;20027;-88
2021/09/04 15:20:41;;;;;;;7.13;4.05;;;;;;;21.83;57.60;93065.03;2050314;28;20526;-91
2021/09/04 15:21:42;;;;;;;4.35;3.95;;;;;;;21.80;59.62;93066.00;2058061;28;20064;-93
2021/09/04 15:22:42;;;;;;;5.65;3.55;;;;;;;21.59;59.00;93070.84;2065764;28;20023;-90
2021/09/04 15:23:44;;;;;;;5.25;3.20;;;;;;;21.34;55.89;93062.34;2054086;28;20519;-92
2021/09/04 15:24:44;;;;;;;4.50;3.25;;;;;;;21.04;58.98;93064.59;2058235;28;20101;-91
2021/09/04 15:25:45;;;;;;;10.45;3.40;;;;;;;20.88;55.69;93067.94;2050223;29;20034;-91
2021/09/04 15:26:46;;;;;;;10.57;3.00;;;;;;;20.86;53.53;93073.13;2050129;28;20034;-93
2021/09/04 15:27:47;;;;;;;6.07;3.13;;;;;;;20.64;54.04;93062.09;2051906;28;20034;-90
2021/09/04 15:28:48;;;;;;;4.13;2.80;;;;;;;20.35;55.02;93061.06;2057266;28;20507;-91
2021/09/04 15:29:49;;;;;;;3.30;2.50;;;;;;;20.28;55.14;93066.91;2059399;28;20027;-89
2021/09/04 15:30:50;;;;;;;3.85;2.50;;;;;;;20.28;52.99;93069.63;2058382;28;20023;-90
2021/09/04 15:31:52;;;;;;;4.00;2.70;;;;;;;19.95;54.72;93073.50;2049024;29;20023;-91
2021/09/04 15:32:52;;;;;;;3.42;2.75;;;;;;;19.85;57.44;93070.19;2042277;28;20473;-92
2021/09/04 15:33:53;;;;;;;2.55;2.35;;;;;;;19.72;57.20;93069.78;2056175;28;20023;-90
2021/09/04 15:34:54;;;;;;;2.85;2.42;;;;;;;19.69;53.10;93078.13;2064456;28;20037;-93
2021/09/04 15:35:55;;;;;;;4.40;2.58;;;;;;;19.64;57.37;93071.41;2050330;29;20027;-91
2021/09/04 15:36:56;;;;;;;2.90;2.50;;;;;;;19.51;59.02;93079.13;2050390;28;20078;-90
2021/09/04 15:37:57;;;;;;;4.45;2.50;;;;;;;19.39;56.56;93080.91;2050276;29;20027;-91
2021/09/04 15:38:58;;;;;;;3.85;2.85;;;;;;;19.29;55.70;93074.16;2055049;28;20057;-92
2021/09/04 15:39:59;;;;;;;3.58;2.83;;;;;;;19.41;55.28;93080.47;2058592;28;20023;-90
2021/09/04 15:41:02;;;;;;;4.30;2.17;;;;;;;19.33;58.32;93078.16;2058314;28;20503;-91
2021/09/04 15:42:03;;;;;;;3.35;2.83;;;;;;;19.22;60.42;93083.41;2058382;28;20532;-92
2021/09/04 15:43:06;;;;;;;2.72;2.47;;;;;;;19.20;55.03;93080.44;2050498;28;20094;-91
2021/09/04 15:44:08;;;;;;;3.38;2.58;;;;;;;19.03;54.87;93080.19;2046165;28;20441;-92
2021/09/04 15:45:09;;;;;;;3.20;2.67;;;;;;;19.07;56.73;93074.59;2042573;29;20039;-91
2021/09/04 15:46:10;;;;;;;3.13;2.83;;;;;;;18.99;56.00;93074.22;2042584;29;20110;-91
2021/09/04 15:47:11;;;;;;;3.97;2.97;;;;;;;18.92;59.51;93071.13;2038296;29;20027;-90
2021/09/04 15:48:13;;;;;;;4.38;2.42;;;;;;;18.75;58.72;93076.31;2038110;29;20056;-90
2021/09/04 15:49:14;;;;;;;5.10;2.70;;;;;;;18.77;59.01;93073.88;2051355;28;20113;-92
2021/09/04 15:50:15;;;;;;;4.45;2.40;;;;;;;18.72;60.92;93063.72;2050441;28;20019;-91
2021/09/04 15:51:16;;;;;;;3.38;2.58;;;;;;;18.73;59.55;93070.63;2050370;29;20179;-92
2021/09/04 15:52:17;;;;;;;4.15;2.83;;;;;;;18.61;59.52;93067.72;2042453;28;20042;-89
2021/09/04 15:53:18;;;;;;;6.75;3.00;;;;;;;18.64;57.59;93074.16;2042578;29;20424;-93
2021/09/04 15:54:19;;;;;;;7.80;3.20;;;;;;;18.50;58.21;93067.53;2042438;29;20019;-89
2021/09/04 15:55:20;;;;;;;6.50;2.80;;;;;;;18.58;59.05;93065.94;2050165;28;20496;-92
2021/09/04 15:56:21;;;;;;;2.97;2.47;;;;;;;18.56;57.34;93062.19;2042195;29;20027;-90
2021/09/04 15:57:22;;;;;;;5.07;2.53;;;;;;;18.56;56.95;93064.91;2044581;29;20024;-94
2021/09/04 15:58:24;;;;;;;3.88;2.78;;;;;;;18.61;57.12;93056.91;2042320;29;20035;-90
2021/09/04 15:59:24;;;;;;;3.67;2.30;;;;;;;18.61;55.35;93059.59;2050140;29;20030;-92
2021/09/04 16:00:25;;;;;;;4.30;2.38;;;;;;;18.51;57.38;93058.19;2050124;29;20027;-92
2021/09/04 16:01:26;;;;;;;2.75;2.35;;;;;;;18.46;59.07;93056.16;2050088;28;20023;-91
2021/09/04 16:02:27;;;;;;;5.85;2.40;;;;;;;18.47;55.80;93067.72;2042150;29;20086;-90
2021/09/04 16:03:28;;;;;;;6.00;2.63;;;;;;;18.56;57.54;93054.06;2049865;29;20023;-93
2021/09/04 16:04:29;;;;;;;3.78;2.30;;;;;;;18.65;57.76;93050.53;2042427;29;20030;-92
2021/09/04 16:05:30;;;;;;;3.38;3.05;;;;;;;18.72;59.07;93045.50;2042348;29;20034;-92
2021/09/04 16:06:37;;;;;;;3.17;2.45;;;;;;;18.87;58.04;93050.88;2050015;29;20540;-91
2021/09/04 16:07:38;;;;;;;5.65;2.72;;;;;;;18.94;58.61;93045.09;2057576;28;20027;-90
2021/09/04 16:08:38;;;;;;;3.90;2.97;;;;;;;18.99;57.54;93046.38;2050330;28;20263;-90
2021/09/04 16:09:41;;;;;;;2.90;2.50;;;;;;;19.02;58.37;93045.44;2042113;29;20417;-91
2021/09/04 16:10:42;;;;;;;5.50;2.78;;;;;;;19.12;58.22;93046.81;2038646;28;20492;-94
2021/09/04 16:11:43;;;;;;;3.67;2.53;;;;;;;19.01;57.69;93042.00;2042350;29;20079;-89
2021/09/04 16:12:44;;;;;;;4.50;3.15;;;;;;;18.95;57.28;93043.88;2042187;29;20491;-93
2021/09/04 16:13:45;;;;;;;4.82;2.80;;;;;;;18.99;61.41;93047.13;2034333;29;20055;-89
2021/09/04 16:14:46;;;;;;;4.30;2.65;;;;;;;19.02;58.59;93046.19;2037469;29;20518;-89
2021/09/04 16:15:47;;;;;;;3.15;2.50;;;;;;;19.15;57.20;93048.59;2042670;29;20059;-89
2021/09/04 16:16:48;;;;;;;4.88;3.00;;;;;;;19.15;57.96;93050.56;2045899;29;20034;-94
2021/09/04 16:17:49;;;;;;;4.57;2.90;;;;;;;19.27;60.22;93044.03;2050152;28;20239;-93
2021/09/04 16:18:50;;;;;;;14.70;3.65;;;;;;;19.36;56.85;93038.50;2050042;28;20046;-91
2021/09/04 16:19:51;;;;;;;5.75;3.45;;;;;;;19.59;58.79;93040.28;2044606;28;20024;-93
2021/09/04 16:20:51;;;;;;;4.43;3.10;;;;;;;19.78;58.55;93040.00;2047481;29;20041;-92
2021/09/04 16:21:52;;;;;;;7.03;3.20;;;;;;;19.91;56.27;93036.94;2050062;29;20457;-91
2021/09/04 16:22:54;;;;;;;3.40;3.00;;;;;;;19.85;53.73;93032.22;2042113;29;20034;-91
2021/09/04 16:23:55;;;;;;;5.50;2.80;;;;;;;20.11;57.05;93039.63;2034113;29;20024;-91
2021/09/04 16:24:56;;;;;;;6.78;2.72;;;;;;;20.04;55.70;93043.50;2042072;29;20412;-93
2021/09/04 16:25:57;;;;;;;9.57;2.40;;;;;;;20.10;57.56;93036.13;2042237;29;20032;-91
2021/09/04 16:26:58;;;;;;;4.60;2.85;;;;;;;20.25;52.54;93046.16;2048437;28;20019;-90
2021/09/04 16:27:59;;;;;;;4.32;2.80;;;;;;;20.40;50.93;93043.31;2049930;29;20382;-90
2021/09/04 16:29:00;;;;;;;4.40;3.70;;;;;;;20.50;53.46;93042.72;2041924;28;20119;-90
2021/09/04 16:30:04;;;;;;;4.70;3.70;;;;;;;20.62;51.64;93047.00;2043146;29;20481;-92
2021/09/04 16:31:04;;;;;;;4.97;3.00;;;;;;;20.72;52.22;93044.09;2052865;28;20445;-91
2021/09/04 16:32:06;;;;;;;6.72;3.35;;;;;;;20.69;53.53;93050.53;2049906;28;20291;-90
2021/09/04 16:33:07;;;;;;;4.00;2.75;;;;;;;20.62;56.96;93038.09;2049827;29;20031;-91
2021/09/04 16:34:08;;;;;;;3.88;2.70;;;;;;;20.62;53.80;93043.53;2037676;29;20023;-90
2021/09/04 16:35:09;;;;;;;3.33;2.95;;;;;;;20.79;55.29;93040.97;2042031;28;20036;-95
2021/09/04 16:36:14;;;;;;;6.75;2.40;;;;;;;20.80;52.39;93037.00;2041944;29;20031;-92
2021/09/04 16:37:17;;;;;;;3.35;2.80;;;;;;;20.90;53.33;93035.59;2043350;28;20032;-91
2021/09/04 16:38:18;;;;;;;2.92;2.63;;;;;;;20.97;54.80;93040.59;2045495;29;20476;-93
2021/09/04 16:39:20;;;;;;;5.72;2.80;;;;;;;20.94;53.88;93041.56;2041973;29;20039;-93
2021/09/04 16:40:21;;;;;;;5.38;2.65;;;;;;;21.12;54.83;93037.72;2026603;29;20391;-91
2021/09/04 16:41:22;;;;;;;2.83;2.63;;;;;;;21.26;53.31;93036.06;2041773;29;20066;-89
2021/09/04 16:42:23;;;;;;;3.92;2.50;;;;;;;21.18;56.94;93040.47;2033949;29;20024;-89
2021/09/04 16:43:24;;;;;;;5.03;2.30;;;;;;;21.02;53.00;93042.59;2036126;28;20028;-92
2021/09/04 16:44:25;;;;;;;7.22;2.63;;;;;;;20.79;55.89;93041.69;2041932;29;20059;-90
2021/09/04 16:45:26;;;;;;;2.58;2.38;;;;;;;20.58;56.23;93041.03;2041958;28;20028;-90
2021/09/04 16:46:27;;;;;;;3.70;2.60;;;;;;;20.22;57.83;93045.16;2041978;29;20038;-93
2021/09/04 16:47:28;;;;;;;4.05;2.53;;;;;;;20.32;58.80;93048.44;2041952;28;20059;-90
2021/09/04 16:48:29;;;;;;;5.65;2.50;;;;;;;20.09;58.57;93042.78;2041498;29;20086;-90
2021/09/04 16:49:30;;;;;;;2.50;2.30;;;;;;;19.97;61.03;93043.16;2049865;28;20087;-89
2021/09/04 16:50:30;;;;;;;6.82;2.75;;;;;;;19.77;63.28;93041.97;2049629;29;20023;-88
2021/09/04 16:51:31;;;;;;;4.90;3.10;;;;;;;19.59;65.67;93040.28;2041836;29;20038;-91
2021/09/04 16:52:32;;;;;;;5.07;2.80;;;;;;;19.54;65.36;93045.63;2049821;28;20026;-93
2021/09/04 16:53:33;;;;;;;5.88;2.95;;;;;;;19.24;63.52;93045.75;2049608;29;20462;-90
2021/09/04 16:54:34;;;;;;;4.18;2.83;;;;;;;19.32;64.66;93046.84;2049950;28;20397;-90
2021/09/04 16:55:37;;;;;;;3.88;2.75;;;;;;;19.04;67.98;93045.72;2049667;29;20019;-90
2021/09/04 16:56:38;;;;;;;5.50;2.65;;;;;;;19.07;66.74;93044.78;2049943;28;20478;-93
2021/09/04 16:57:39;;;;;;;4.32;2.80;;;;;;;18.92;67.61;93050.25;2049554;29;20023;-91
2021/09/04 16:58:40;;;;;;;4.75;2.80;;;;;;;18.90;69.13;93047.25;2045486;29;20051;-91
2021/09/04 16:59:41;;;;;;;3.13;2.75;;;;;;;18.87;68.07;93048.19;2049624;28;20055;-90
2021/09/04 17:00:42;;;;;;;7.35;2.95;;;;;;;18.82;65.70;93048.84;2049827;29;20522;-91
2021/09/04 17:01:43;;;;;;;5.97;3.22;;;;;;;18.96;65.50;93045.34;2041813;28;20038;-90
2021/09/04 17:02:44;;;;;;;3.83;2.75;;;;;;;18.91;65.59;93045.28;2049725;28;20037;-92
2021/09/04 17:03:45;;;;;;;6.97;2.97;;;;;;;18.87;64.94;93048.19;2049578;29;20043;-93
2021/09/04 17:04:45;;;;;;;5.10;3.08;;;;;;;18.93;65.24;93048.28;2049277;28;20456;-90
2021/09/04 17:05:46;;;;;;;3.95;3.38;;;;;;;18.86;64.30;93050.13;2049046;28;20027;-93
2021/09/04 17:06:48;;;;;;;5.43;3.35;;;;;;;18.82;65.13;93051.56;2049499;28;20142;-90
2021/09/04 17:07:48;;;;;;;4.88;3.28;;;;;;;18.62;66.05;93055.66;2047713;29;20110;-92
2021/09/04 17:08:49;;;;;;;6.72;3.20;;;;;;;18.54;65.28;93054.56;2043799;29;20029;-89
2021/09/04 17:09:50;;;;;;;4.47;3.45;;;;;;;18.54;64.78;93053.81;2049441;29;20031;-91
2021/09/04 17:10:51;;;;;;;5.22;3.40;;;;;;;18.34;66.18;93059.88;2049446;29;20030;-90
2021/09/04 17:11:52;;;;;;;11.43;4.07;;;;;;;18.27;67.24;93060.25;2049616;28;20023;-91
2021/09/04 17:12:53;;;;;;;8.48;4.82;;;;;;;18.20;68.08;93060.63;2049615;29;20050;-92
2021/09/04 17:13:54;;;;;;;10.88;5.30;;;;;;;18.18;68.19;93057.66;2041656;28;20050;-91
2021/09/04 17:14:55;;;;;;;13.60;5.72;;;;;;;18.08;69.66;93067.78;2041540;29;20027;-92
2021/09/04 17:15:56;;;;;;;12.85;6.38;;;;;;;17.95;70.45;93062.63;2033941;29;20028;-89
2021/09/04 17:16:57;;;;;;;12.98;5.93;;;;;;;17.68;73.74;93066.28;2041742;29;20469;-89
2021/09/04 17:17:58;;;;;;;15.38;6.78;;;;;;;17.58;74.03;93062.91;2041517;29;20121;-92
2021/09/04 17:18:59;;;;;;;13.73;6.28;;;;;;;17.55;74.53;93068.47;2049273;29;20031;-92
2021/09/04 17:20:00;;;;;;;14.25;6.07;;;;;;;17.51;75.04;93065.94;2057434;28;20022;-89
2021/09/04 17:21:00;;;;;;;15.80;8.00;;;;;;;17.45;75.94;93065.09;2057099;28;20026;-92
2021/09/04 17:22:02;;;;;;;15.75;7.78;;;;;;;17.29;77.13;93065.50;2049310;28;20489;-93
2021/09/04 17:23:03;;;;;;;17.45;8.07;;;;;;;17.23;78.42;93065.38;2056896;28;20121;-91
2021/09/04 17:24:04;;;;;;;16.25;7.50;;;;;;;17.10;79.29;93065.59;2057606;28;20030;-90
2021/09/04 17:25:06;;;;;;;16.17;7.55;;;;;;;17.01;79.87;93070.31;2049360;28;20070;-91
2021/09/04 17:26:07;;;;;;;17.00;7.43;;;;;;;16.85;81.14;93072.16;2049440;28;20071;-91
2021/09/04 17:27:08;;;;;;;14.40;7.20;;;;;;;16.81;81.85;93076.22;2049179;28;20027;-91
2021/09/04 17:28:09;;;;;;;13.30;6.68;;;;;;;16.85;81.78;93066.75;2048934;29;20059;-89
2021/09/04 17:29:10;;;;;;;14.88;6.53;;;;;;;16.73;82.38;93075.09;2049297;29;20023;-91
2021/09/04 17:30:12;;;;;;;11.30;6.35;;;;;;;16.61;84.14;93077.50;2049042;28;20483;-90
2021/09/04 17:31:13;;;;;;;12.82;6.68;;;;;;;16.54;84.81;93080.50;2049510;28;20083;-93
2021/09/04 17:32:14;;;;;;;10.93;6.20;;;;;;;16.55;84.48;93073.16;2049385;29;20505;-90
2021/09/04 17:33:15;;;;;;;10.65;5.90;;;;;;;16.44;85.60;93070.94;2041431;29;20039;-89
2021/09/04 17:34:16;;;;;;;10.35;5.22;;;;;;;16.29;86.38;93068.13;2041185;29;20023;-91
2021/09/04 17:35:17;;;;;;;8.30;5.80;;;;;;;16.32;85.60;93075.31;2048794;28;20032;-91
2021/09/04 17:36:18;;;;;;;7.90;5.05;;;;;;;16.28;85.78;93073.97;2057044;28;20373;-92
2021/09/04 17:37:19;;;;;;;11.45;5.43;;;;;;;16.19;86.27;93080.13;2048373;28;20058;-92
2021/09/04 17:38:19;;;;;;;10.50;5.38;;;;;;;16.20;86.67;93070.84;2048936;29;20027;-89
2021/09/04 17:39:22;;;;;;;9.32;5.10;;;;;;;16.23;86.91;93067.25;2041046;29;20034;-89
2021/09/04 17:40:23;;;;;;;9.40;5.32;;;;;;;16.12;87.65;93075.06;2065054;28;20496;-90
2021/09/04 17:41:24;;;;;;;7.53;4.85;;;;;;;16.00;88.74;93073.28;2056858;28;20069;-89
2021/09/04 17:42:24;;;;;;;11.30;5.50;;;;;;;16.00;89.13;93079.41;2048869;28;20540;-90
2021/09/04 17:43:25;;;;;;;10.35;4.68;;;;;;;15.98;88.82;93075.66;2051559;28;20023;-89
2021/09/04 17:44:26;;;;;;;11.15;5.72;;;;;;;15.87;89.46;93081.53;2057271;28;20038;-90
2021/09/04 17:45:27;;;;;;;8.07;4.68;;;;;;;15.78;90.33;93079.56;2055524;28;20026;-93
2021/09/04 17:46:28;;;;;;;8.50;5.07;;;;;;;15.73;91.16;93077.47;2065300;28;20034;-90
2021/09/04 17:47:29;;;;;;;9.38;5.53;;;;;;;15.67;91.85;93073.13;2057416;28;20023;-90
2021/09/04 17:48:30;;;;;;;6.00;4.70;;;;;;;15.70;91.40;93083.00;2057281;28;20034;-91
2021/09/04 17:49:31;;;;;;;8.30;4.68;;;;;;;15.68;92.06;93080.78;2048985;29;20031;-90
2021/09/04 17:50:32;;;;;;;8.25;4.50;;;;;;;15.56;92.71;93085.06;2049154;29;20477;-92
2021/09/04 17:51:32;;;;;;;5.80;4.47;;;;;;;15.55;92.71;93082.84;2057155;28;20026;-89
2021/09/04 17:52:33;;;;;;;6.38;4.85;;;;;;;15.51;93.32;93088.38;2057032;28;20023;-91
2021/09/04 17:53:35;;;;;;;7.45;4.47;;;;;;;15.43;93.81;93091.81;2056418;28;20022;-90
2021/09/04 17:54:36;;;;;;;7.28;4.10;;;;;;;15.40;93.96;93092.69;2049360;28;20055;-89
2021/09/04 17:55:37;;;;;;;10.15;4.32;;;;;;;15.29;93.63;93090.44;2057159;28;20018;-92
2021/09/04 17:56:38;;;;;;;6.85;3.80;;;;;;;15.19;94.10;93088.91;2049191;28;20027;-89
2021/09/04 17:57:39;;;;;;;7.22;4.57;;;;;;;15.19;95.13;93089.66;2045393;29;20024;-90
2021/09/04 17:58:40;;;;;;;13.38;4.15;;;;;;;15.10;95.85;93098.47;2048951;28;20477;-90
2021/09/04 17:59:41;;;;;;;6.95;4.05;;;;;;;15.11;96.11;93099.22;2064783;28;20030;-90
2021/09/04 18:00:42;;;;;;;6.78;4.65;;;;;;;15.03;97.02;93101.44;2064444;28;20030;-90
2021/09/04 18:01:43;;;;;;;7.40;4.40;;;;;;;15.08;96.81;93100.84;2056464;28;20027;-92
2021/09/04 18:02:45;;;;;;;10.57;4.70;;;;;;;15.07;96.50;93098.59;2062533;28;20040;-89
2021/09/04 18:03:46;;;;;;;6.13;4.32;;;;;;;15.15;95.86;93101.78;2055907;28;20035;-91
2021/09/04 18:04:47;;;;;;;6.78;4.32;;;;;;;15.15;95.96;93102.53;2040578;29;20366;-89
2021/09/04 18:05:48;;;;;;;5.68;5.07;;;;;;;15.13;95.26;93102.19;2047773;28;20042;-93
2021/09/04 18:06:49;;;;;;;7.72;4.95;;;;;;;15.06;95.73;93105.19;2050684;28;20030;-92
2021/09/04 18:07:50;;;;;;;8.85;5.18;;;;;;;14.99;96.06;93113.53;2042377;28;20024;-90
2021/09/04 18:08:51;;;;;;;5.88;5.22;;;;;;;14.96;95.91;93109.78;2048493;28;20103;-91
2021/09/04 18:09:52;;;;;;;6.70;5.13;;;;;;;14.88;96.70;93119.31;2042979;28;20016;-91
2021/09/04 18:10:53;;;;;;;9.07;4.85;;;;;;;14.78;97.15;93112.41;2053712;28;20094;-93
2021/09/04 18:11:54;;;;;;;7.60;5.10;;;;;;;14.74;97.62;93111.78;2051936;28;20139;-93
2021/09/04 18:12:55;;;;;;;5.75;5.13;;;;;;;14.66;98.31;93108.59;2055853;28;20030;-89
2021/09/04 18:13:55;;;;;;;6.90;5.53;;;;;;;14.63;97.62;93114.13;2048247;28;20531;-92
2021/09/04 18:14:57;;;;;;;6.57;5.68;;;;;;;14.60;97.40;93105.75;2054235;28;20396;-92
2021/09/04 18:15:58;;;;;;;7.43;5.38;;;;;;;14.61;97.88;93104.53;2048686;28;20504;-91
2021/09/04 18:16:59;;;;;;;6.43;5.63;;;;;;;14.57;98.55;93111.25;2042694;28;20087;-89
2021/09/04 18:18:00;;;;;;;8.48;5.78;;;;;;;14.43;98.87;93111.75;2055999;28;20023;-90
2021/09/04 18:19:01;;;;;;;6.20;5.40;;;;;;;14.42;98.86;93110.25;2056319;28;20019;-89
2021/09/04 18:20:03;;;;;;;8.07;5.72;;;;;;;14.40;98.87;93109.94;2051740;28;20062;-90
2021/09/04 18:21:04;;;;;;;7.80;5.70;;;;;;;14.35;99.32;93114.72;2048968;28;20090;-90
2021/09/04 18:22:05;;;;;;;6.25;5.25;;;;;;;14.41;99.13;93112.19;2045988;28;20452;-88
2021/09/04 18:23:06;;;;;;;7.45;6.07;;;;;;;14.29;99.62;93119.16;2048507;28;20039;-92
2021/09/04 18:24:07;;;;;;;7.93;5.65;;;;;;;14.31;100.00;93121.38;2048265;28;20033;-90
2021/09/04 18:25:08;;;;;;;6.35;5.63;;;;;;;14.27;100.00;93123.47;2048778;28;20081;-89
2021/09/04 18:26:09;;;;;;;6.07;5.38;;;;;;;14.23;100.00;93125.53;2056295;28;20090;-92
2021/09/04 18:27:10;;;;;;;7.88;6.22;;;;;;;14.20;100.00;93129.09;2052844;28;20023;-89
2021/09/04 18:28:12;;;;;;;5.65;5.15;;;;;;;14.05;100.00;93134.22;2056660;28;20097;-91
2021/09/04 18:29:13;;;;;;;7.78;5.35;;;;;;;14.03;100.00;93133.91;2048696;28;20110;-91
2021/09/04 18:30:14;;;;;;;7.13;5.65;;;;;;;13.96;100.00;93137.59;2044104;28;20516;-91